sensor_id;sensor_type;location;lat;lon;timestamp;P1;durP1;ratioP1;P2;durP2;ratioP2
32228;SDS011;18717;48.034;11.186;2023-08-06T00:00:10;14.93;;;13.70;;
32228;SDS011;18717;48.034;11.186;2023-08-06T00:02:39;14.70;;;13.63;;
32228;SDS011;18717;48.034;11.186;2023-08-06T00:05:07;15.27;;;14.18;;
32228;SDS011;18717;48.034;11.186;2023-08-06T00:07:35;14.75;;;13.63;;
32228;SDS011;18717;48.034;11.186;2023-08-06T00:10:03;15.15;;;14.07;;
32228;SDS011;18717;48.034;11.186;2023-08-06T00:12:31;15.50;;;13.85;;
32228;SDS011;18717;48.034;11.186;2023-08-06T00:14:59;15.07;;;13.55;;
32228;SDS011;18717;48.034;11.186;2023-08-06T00:17:27;15.45;;;14.25;;
32228;SDS011;18717;48.034;11.186;2023-08-06T00:19:56;14.55;;;13.32;;
32228;SDS011;18717;48.034;11.186;2023-08-06T00:22:24;14.38;;;13.18;;
32228;SDS011;18717;48.034;11.186;2023-08-06T00:24:52;15.45;;;14.00;;
32228;SDS011;18717;48.034;11.186;2023-08-06T00:27:19;15.18;;;13.68;;
32228;SDS011;18717;48.034;11.186;2023-08-06T00:29:47;14.77;;;13.68;;
32228;SDS011;18717;48.034;11.186;2023-08-06T00:32:15;16.52;;;14.48;;
32228;SDS011;18717;48.034;11.186;2023-08-06T00:34:43;15.18;;;13.98;;
32228;SDS011;18717;48.034;11.186;2023-08-06T00:37:12;14.45;;;13.18;;
32228;SDS011;18717;48.034;11.186;2023-08-06T00:39:40;16.13;;;14.63;;
32228;SDS011;18717;48.034;11.186;2023-08-06T00:42:07;14.45;;;13.40;;
32228;SDS011;18717;48.034;11.186;2023-08-06T00:44:35;15.82;;;14.60;;
32228;SDS011;18717;48.034;11.186;2023-08-06T00:47:03;15.00;;;13.77;;
32228;SDS011;18717;48.034;11.186;2023-08-06T00:49:31;16.23;;;14.73;;
32228;SDS011;18717;48.034;11.186;2023-08-06T00:51:59;15.55;;;13.95;;
32228;SDS011;18717;48.034;11.186;2023-08-06T00:54:29;15.13;;;13.88;;
32228;SDS011;18717;48.034;11.186;2023-08-06T00:56:56;14.02;;;12.93;;
32228;SDS011;18717;48.034;11.186;2023-08-06T00:59:25;13.60;;;12.60;;
32228;SDS011;18717;48.034;11.186;2023-08-06T01:01:53;13.63;;;12.63;;
32228;SDS011;18717;48.034;11.186;2023-08-06T01:04:21;14.35;;;12.98;;
32228;SDS011;18717;48.034;11.186;2023-08-06T01:06:52;13.55;;;12.38;;
32228;SDS011;18717;48.034;11.186;2023-08-06T01:09:30;13.00;;;12.02;;
32228;SDS011;18717;48.034;11.186;2023-08-06T01:12:05;13.07;;;12.18;;
32228;SDS011;18717;48.034;11.186;2023-08-06T01:14:36;13.63;;;12.68;;
32228;SDS011;18717;48.034;11.186;2023-08-06T01:17:08;13.52;;;12.55;;
32228;SDS011;18717;48.034;11.186;2023-08-06T01:19:37;12.45;;;11.65;;
32228;SDS011;18717;48.034;11.186;2023-08-06T01:22:06;13.05;;;12.10;;
32228;SDS011;18717;48.034;11.186;2023-08-06T01:24:34;13.13;;;12.00;;
32228;SDS011;18717;48.034;11.186;2023-08-06T01:27:03;13.20;;;12.07;;
32228;SDS011;18717;48.034;11.186;2023-08-06T01:29:33;13.15;;;12.25;;
32228;SDS011;18717;48.034;11.186;2023-08-06T01:32:03;12.23;;;11.48;;
32228;SDS011;18717;48.034;11.186;2023-08-06T01:34:32;12.45;;;11.63;;
32228;SDS011;18717;48.034;11.186;2023-08-06T01:37:01;12.43;;;11.73;;
32228;SDS011;18717;48.034;11.186;2023-08-06T01:39:31;12.27;;;11.48;;
32228;SDS011;18717;48.034;11.186;2023-08-06T01:42:00;12.20;;;11.40;;
32228;SDS011;18717;48.034;11.186;2023-08-06T01:44:28;13.27;;;12.48;;
32228;SDS011;18717;48.034;11.186;2023-08-06T01:46:56;12.13;;;11.38;;
32228;SDS011;18717;48.034;11.186;2023-08-06T01:49:24;12.23;;;11.50;;
32228;SDS011;18717;48.034;11.186;2023-08-06T01:51:52;12.13;;;11.43;;
32228;SDS011;18717;48.034;11.186;2023-08-06T01:54:20;12.05;;;11.35;;
32228;SDS011;18717;48.034;11.186;2023-08-06T01:56:50;12.02;;;11.32;;
32228;SDS011;18717;48.034;11.186;2023-08-06T01:59:18;12.68;;;11.88;;
32228;SDS011;18717;48.034;11.186;2023-08-06T02:01:46;13.00;;;12.00;;
32228;SDS011;18717;48.034;11.186;2023-08-06T02:04:14;12.25;;;11.25;;
32228;SDS011;18717;48.034;11.186;2023-08-06T02:06:41;11.07;;;10.38;;
32228;SDS011;18717;48.034;11.186;2023-08-06T02:09:09;12.02;;;11.20;;
32228;SDS011;18717;48.034;11.186;2023-08-06T02:11:37;12.23;;;11.45;;
32228;SDS011;18717;48.034;11.186;2023-08-06T02:14:06;12.20;;;11.30;;
32228;SDS011;18717;48.034;11.186;2023-08-06T02:16:34;11.80;;;11.00;;
32228;SDS011;18717;48.034;11.186;2023-08-06T02:19:01;12.27;;;11.45;;
32228;SDS011;18717;48.034;11.186;2023-08-06T02:21:29;11.68;;;10.85;;
32228;SDS011;18717;48.034;11.186;2023-08-06T02:23:57;11.48;;;10.77;;
32228;SDS011;18717;48.034;11.186;2023-08-06T02:26:25;12.77;;;11.90;;
32228;SDS011;18717;48.034;11.186;2023-08-06T02:28:53;12.52;;;11.35;;
32228;SDS011;18717;48.034;11.186;2023-08-06T02:31:22;11.45;;;10.80;;
32228;SDS011;18717;48.034;11.186;2023-08-06T02:33:50;13.18;;;12.20;;
32228;SDS011;18717;48.034;11.186;2023-08-06T02:36:18;12.15;;;11.45;;
32228;SDS011;18717;48.034;11.186;2023-08-06T02:38:45;11.73;;;10.80;;
32228;SDS011;18717;48.034;11.186;2023-08-06T02:41:14;11.85;;;10.82;;
32228;SDS011;18717;48.034;11.186;2023-08-06T02:43:41;12.70;;;11.70;;
32228;SDS011;18717;48.034;11.186;2023-08-06T02:46:09;12.63;;;11.82;;
32228;SDS011;18717;48.034;11.186;2023-08-06T02:48:38;11.57;;;10.75;;
32228;SDS011;18717;48.034;11.186;2023-08-06T02:51:06;11.82;;;11.15;;
32228;SDS011;18717;48.034;11.186;2023-08-06T02:53:34;11.48;;;10.77;;
32228;SDS011;18717;48.034;11.186;2023-08-06T02:56:02;11.90;;;11.10;;
32228;SDS011;18717;48.034;11.186;2023-08-06T02:58:29;11.57;;;10.73;;
32228;SDS011;18717;48.034;11.186;2023-08-06T03:01:00;11.20;;;10.50;;
32228;SDS011;18717;48.034;11.186;2023-08-06T03:05:58;12.13;;;11.18;;
32228;SDS011;18717;48.034;11.186;2023-08-06T03:08:26;12.10;;;11.07;;
32228;SDS011;18717;48.034;11.186;2023-08-06T03:10:54;11.68;;;10.98;;
32228;SDS011;18717;48.034;11.186;2023-08-06T03:13:22;11.50;;;10.90;;
32228;SDS011;18717;48.034;11.186;2023-08-06T03:15:53;11.48;;;10.77;;
32228;SDS011;18717;48.034;11.186;2023-08-06T03:18:21;11.02;;;10.32;;
32228;SDS011;18717;48.034;11.186;2023-08-06T03:20:49;11.73;;;10.82;;
32228;SDS011;18717;48.034;11.186;2023-08-06T03:23:18;11.60;;;10.80;;
32228;SDS011;18717;48.034;11.186;2023-08-06T03:25:46;11.52;;;10.68;;
32228;SDS011;18717;48.034;11.186;2023-08-06T03:28:14;11.32;;;10.70;;
32228;SDS011;18717;48.034;11.186;2023-08-06T03:30:42;11.73;;;11.02;;
32228;SDS011;18717;48.034;11.186;2023-08-06T03:33:10;11.82;;;11.05;;
32228;SDS011;18717;48.034;11.186;2023-08-06T03:35:38;11.73;;;10.77;;
32228;SDS011;18717;48.034;11.186;2023-08-06T03:38:05;12.43;;;11.38;;
32228;SDS011;18717;48.034;11.186;2023-08-06T03:40:35;11.50;;;10.77;;
32228;SDS011;18717;48.034;11.186;2023-08-06T03:43:03;11.50;;;10.80;;
32228;SDS011;18717;48.034;11.186;2023-08-06T03:45:31;11.27;;;10.57;;
32228;SDS011;18717;48.034;11.186;2023-08-06T03:47:59;10.98;;;10.38;;
32228;SDS011;18717;48.034;11.186;2023-08-06T03:50:27;12.05;;;11.25;;
32228;SDS011;18717;48.034;11.186;2023-08-06T03:52:54;11.20;;;10.40;;
32228;SDS011;18717;48.034;11.186;2023-08-06T03:55:22;11.90;;;11.00;;
32228;SDS011;18717;48.034;11.186;2023-08-06T03:57:51;11.23;;;10.50;;
32228;SDS011;18717;48.034;11.186;2023-08-06T04:00:20;11.23;;;10.60;;
32228;SDS011;18717;48.034;11.186;2023-08-06T04:02:48;19.70;;;11.10;;
32228;SDS011;18717;48.034;11.186;2023-08-06T04:05:16;11.98;;;11.20;;
32228;SDS011;18717;48.034;11.186;2023-08-06T04:07:44;11.90;;;10.90;;
32228;SDS011;18717;48.034;11.186;2023-08-06T04:10:12;14.30;;;10.90;;
32228;SDS011;18717;48.034;11.186;2023-08-06T04:12:40;11.82;;;11.13;;
32228;SDS011;18717;48.034;11.186;2023-08-06T04:15:10;11.55;;;10.85;;
32228;SDS011;18717;48.034;11.186;2023-08-06T04:17:37;13.80;;;10.60;;
32228;SDS011;18717;48.034;11.186;2023-08-06T04:20:06;12.13;;;11.00;;
32228;SDS011;18717;48.034;11.186;2023-08-06T04:22:34;11.85;;;10.80;;
32228;SDS011;18717;48.034;11.186;2023-08-06T04:25:02;11.32;;;10.63;;
32228;SDS011;18717;48.034;11.186;2023-08-06T04:27:30;11.65;;;10.95;;
32228;SDS011;18717;48.034;11.186;2023-08-06T04:29:58;12.05;;;10.90;;
32228;SDS011;18717;48.034;11.186;2023-08-06T04:32:27;12.38;;;11.25;;
32228;SDS011;18717;48.034;11.186;2023-08-06T04:34:55;11.80;;;10.93;;
32228;SDS011;18717;48.034;11.186;2023-08-06T04:37:23;11.43;;;10.80;;
32228;SDS011;18717;48.034;11.186;2023-08-06T04:39:51;11.43;;;10.45;;
32228;SDS011;18717;48.034;11.186;2023-08-06T04:42:19;11.38;;;10.68;;
32228;SDS011;18717;48.034;11.186;2023-08-06T04:44:46;11.30;;;10.55;;
32228;SDS011;18717;48.034;11.186;2023-08-06T04:47:14;11.13;;;10.48;;
32228;SDS011;18717;48.034;11.186;2023-08-06T04:49:45;11.40;;;10.68;;
32228;SDS011;18717;48.034;11.186;2023-08-06T04:52:12;11.75;;;10.63;;
32228;SDS011;18717;48.034;11.186;2023-08-06T04:54:40;11.05;;;10.43;;
32228;SDS011;18717;48.034;11.186;2023-08-06T04:57:08;11.50;;;10.80;;
32228;SDS011;18717;48.034;11.186;2023-08-06T04:59:36;11.68;;;10.77;;
32228;SDS011;18717;48.034;11.186;2023-08-06T05:02:04;11.65;;;10.70;;
32228;SDS011;18717;48.034;11.186;2023-08-06T05:04:31;11.27;;;10.57;;
32228;SDS011;18717;48.034;11.186;2023-08-06T05:07:01;11.80;;;11.10;;
32228;SDS011;18717;48.034;11.186;2023-08-06T05:09:28;10.85;;;10.25;;
32228;SDS011;18717;48.034;11.186;2023-08-06T05:11:56;11.25;;;10.45;;
32228;SDS011;18717;48.034;11.186;2023-08-06T05:14:24;11.70;;;10.90;;
32228;SDS011;18717;48.034;11.186;2023-08-06T05:16:52;11.30;;;10.50;;
32228;SDS011;18717;48.034;11.186;2023-08-06T05:19:19;11.13;;;10.43;;
32228;SDS011;18717;48.034;11.186;2023-08-06T05:21:47;11.65;;;10.80;;
32228;SDS011;18717;48.034;11.186;2023-08-06T05:24:16;11.27;;;10.52;;
32228;SDS011;18717;48.034;11.186;2023-08-06T05:26:47;11.45;;;10.60;;
32228;SDS011;18717;48.034;11.186;2023-08-06T05:29:16;11.05;;;10.35;;
32228;SDS011;18717;48.034;11.186;2023-08-06T05:31:43;11.55;;;10.90;;
32228;SDS011;18717;48.034;11.186;2023-08-06T05:34:11;11.30;;;10.50;;
32228;SDS011;18717;48.034;11.186;2023-08-06T05:36:39;11.75;;;10.70;;
32228;SDS011;18717;48.034;11.186;2023-08-06T05:39:07;10.88;;;10.35;;
32228;SDS011;18717;48.034;11.186;2023-08-06T05:41:36;11.85;;;11.02;;
32228;SDS011;18717;48.034;11.186;2023-08-06T05:44:04;11.30;;;10.60;;
32228;SDS011;18717;48.034;11.186;2023-08-06T05:46:31;11.55;;;10.70;;
32228;SDS011;18717;48.034;11.186;2023-08-06T05:48:59;10.90;;;10.30;;
32228;SDS011;18717;48.034;11.186;2023-08-06T05:51:27;10.85;;;10.00;;
32228;SDS011;18717;48.034;11.186;2023-08-06T05:53:55;10.75;;;10.15;;
32228;SDS011;18717;48.034;11.186;2023-08-06T05:56:23;10.77;;;10.18;;
32228;SDS011;18717;48.034;11.186;2023-08-06T05:58:52;10.48;;;9.88;;
32228;SDS011;18717;48.034;11.186;2023-08-06T06:01:20;10.60;;;9.82;;
32228;SDS011;18717;48.034;11.186;2023-08-06T06:03:47;10.32;;;9.63;;
32228;SDS011;18717;48.034;11.186;2023-08-06T06:06:15;10.50;;;9.88;;
32228;SDS011;18717;48.034;11.186;2023-08-06T06:08:44;11.07;;;10.18;;
32228;SDS011;18717;48.034;11.186;2023-08-06T06:11:12;11.18;;;10.27;;
32228;SDS011;18717;48.034;11.186;2023-08-06T06:13:39;10.48;;;9.88;;
32228;SDS011;18717;48.034;11.186;2023-08-06T06:16:08;10.48;;;9.93;;
32228;SDS011;18717;48.034;11.186;2023-08-06T06:18:36;11.00;;;10.20;;
32228;SDS011;18717;48.034;11.186;2023-08-06T06:21:04;10.65;;;10.05;;
32228;SDS011;18717;48.034;11.186;2023-08-06T06:23:32;11.27;;;10.60;;
32228;SDS011;18717;48.034;11.186;2023-08-06T06:25:59;11.20;;;10.10;;
32228;SDS011;18717;48.034;11.186;2023-08-06T06:28:27;11.27;;;10.48;;
32228;SDS011;18717;48.034;11.186;2023-08-06T06:30:59;10.75;;;10.15;;
32228;SDS011;18717;48.034;11.186;2023-08-06T06:33:28;11.00;;;10.32;;
32228;SDS011;18717;48.034;11.186;2023-08-06T06:35:56;11.82;;;10.75;;
32228;SDS011;18717;48.034;11.186;2023-08-06T06:38:24;10.63;;;9.93;;
32228;SDS011;18717;48.034;11.186;2023-08-06T06:40:55;11.18;;;10.40;;
32228;SDS011;18717;48.034;11.186;2023-08-06T06:43:23;11.02;;;9.98;;
32228;SDS011;18717;48.034;11.186;2023-08-06T06:45:55;10.73;;;10.02;;
32228;SDS011;18717;48.034;11.186;2023-08-06T06:48:25;10.85;;;10.23;;
32228;SDS011;18717;48.034;11.186;2023-08-06T06:50:54;11.20;;;10.40;;
32228;SDS011;18717;48.034;11.186;2023-08-06T06:53:22;10.63;;;10.13;;
32228;SDS011;18717;48.034;11.186;2023-08-06T06:55:53;10.57;;;10.05;;
32228;SDS011;18717;48.034;11.186;2023-08-06T06:58:21;10.75;;;10.05;;
32228;SDS011;18717;48.034;11.186;2023-08-06T07:00:49;10.52;;;9.93;;
32228;SDS011;18717;48.034;11.186;2023-08-06T07:03:17;10.40;;;9.70;;
32228;SDS011;18717;48.034;11.186;2023-08-06T07:05:44;11.82;;;11.02;;
32228;SDS011;18717;48.034;11.186;2023-08-06T07:08:13;11.10;;;10.50;;
32228;SDS011;18717;48.034;11.186;2023-08-06T07:10:41;11.40;;;10.57;;
32228;SDS011;18717;48.034;11.186;2023-08-06T07:13:09;10.65;;;9.95;;
32228;SDS011;18717;48.034;11.186;2023-08-06T07:15:37;10.45;;;9.75;;
32228;SDS011;18717;48.034;11.186;2023-08-06T07:18:05;10.43;;;9.73;;
32228;SDS011;18717;48.034;11.186;2023-08-06T07:20:33;10.30;;;9.77;;
32228;SDS011;18717;48.034;11.186;2023-08-06T07:23:01;10.32;;;9.65;;
32228;SDS011;18717;48.034;11.186;2023-08-06T07:25:30;9.88;;;9.38;;
32228;SDS011;18717;48.034;11.186;2023-08-06T07:27:57;9.90;;;9.40;;
32228;SDS011;18717;48.034;11.186;2023-08-06T07:30:25;10.90;;;10.15;;
32228;SDS011;18717;48.034;11.186;2023-08-06T07:32:53;10.60;;;10.00;;
32228;SDS011;18717;48.034;11.186;2023-08-06T07:35:20;11.10;;;10.50;;
32228;SDS011;18717;48.034;11.186;2023-08-06T07:37:48;10.63;;;9.80;;
32228;SDS011;18717;48.034;11.186;2023-08-06T07:40:16;10.10;;;9.63;;
32228;SDS011;18717;48.034;11.186;2023-08-06T07:42:45;10.73;;;10.02;;
32228;SDS011;18717;48.034;11.186;2023-08-06T07:45:13;10.70;;;10.10;;
32228;SDS011;18717;48.034;11.186;2023-08-06T07:47:41;10.57;;;10.02;;
32228;SDS011;18717;48.034;11.186;2023-08-06T07:50:10;10.70;;;9.95;;
32228;SDS011;18717;48.034;11.186;2023-08-06T07:52:37;10.95;;;10.00;;
32228;SDS011;18717;48.034;11.186;2023-08-06T07:55:05;10.40;;;9.80;;
32228;SDS011;18717;48.034;11.186;2023-08-06T07:57:33;10.00;;;9.40;;
32228;SDS011;18717;48.034;11.186;2023-08-06T08:00:03;10.15;;;9.63;;
32228;SDS011;18717;48.034;11.186;2023-08-06T08:02:32;9.65;;;9.25;;
32228;SDS011;18717;48.034;11.186;2023-08-06T08:04:59;9.80;;;9.25;;
32228;SDS011;18717;48.034;11.186;2023-08-06T08:07:27;10.32;;;9.82;;
32228;SDS011;18717;48.034;11.186;2023-08-06T08:09:56;9.77;;;9.32;;
32228;SDS011;18717;48.034;11.186;2023-08-06T08:12:24;9.60;;;9.20;;
32228;SDS011;18717;48.034;11.186;2023-08-06T08:14:52;10.30;;;9.80;;
32228;SDS011;18717;48.034;11.186;2023-08-06T08:17:21;9.82;;;9.25;;
32228;SDS011;18717;48.034;11.186;2023-08-06T08:19:48;9.77;;;9.32;;
32228;SDS011;18717;48.034;11.186;2023-08-06T08:22:16;10.40;;;9.60;;
32228;SDS011;18717;48.034;11.186;2023-08-06T08:24:44;10.35;;;9.68;;
32228;SDS011;18717;48.034;11.186;2023-08-06T08:27:11;10.15;;;9.65;;
32228;SDS011;18717;48.034;11.186;2023-08-06T08:29:39;10.15;;;9.70;;
32228;SDS011;18717;48.034;11.186;2023-08-06T08:32:07;10.27;;;9.88;;
32228;SDS011;18717;48.034;11.186;2023-08-06T08:34:36;10.10;;;9.70;;
32228;SDS011;18717;48.034;11.186;2023-08-06T08:37:03;10.27;;;9.77;;
32228;SDS011;18717;48.034;11.186;2023-08-06T08:39:32;10.32;;;9.93;;
32228;SDS011;18717;48.034;11.186;2023-08-06T08:42:00;10.10;;;9.70;;
32228;SDS011;18717;48.034;11.186;2023-08-06T08:44:30;10.30;;;9.65;;
32228;SDS011;18717;48.034;11.186;2023-08-06T08:46:59;9.80;;;9.40;;
32228;SDS011;18717;48.034;11.186;2023-08-06T08:49:27;10.02;;;9.57;;
32228;SDS011;18717;48.034;11.186;2023-08-06T08:51:57;10.13;;;9.57;;
32228;SDS011;18717;48.034;11.186;2023-08-06T08:54:26;10.13;;;9.70;;
32228;SDS011;18717;48.034;11.186;2023-08-06T08:56:55;10.02;;;9.35;;
32228;SDS011;18717;48.034;11.186;2023-08-06T08:59:23;10.55;;;10.05;;
32228;SDS011;18717;48.034;11.186;2023-08-06T09:01:51;9.93;;;9.52;;
32228;SDS011;18717;48.034;11.186;2023-08-06T09:04:20;9.70;;;9.30;;
32228;SDS011;18717;48.034;11.186;2023-08-06T09:06:50;9.55;;;9.07;;
32228;SDS011;18717;48.034;11.186;2023-08-06T09:09:20;10.15;;;9.50;;
32228;SDS011;18717;48.034;11.186;2023-08-06T09:11:51;9.70;;;9.20;;
32228;SDS011;18717;48.034;11.186;2023-08-06T09:14:20;9.65;;;9.15;;
32228;SDS011;18717;48.034;11.186;2023-08-06T09:16:48;10.10;;;9.43;;
32228;SDS011;18717;48.034;11.186;2023-08-06T09:19:16;10.05;;;9.27;;
32228;SDS011;18717;48.034;11.186;2023-08-06T09:21:45;10.90;;;10.30;;
32228;SDS011;18717;48.034;11.186;2023-08-06T09:24:15;10.60;;;9.85;;
32228;SDS011;18717;48.034;11.186;2023-08-06T09:26:44;9.80;;;9.30;;
32228;SDS011;18717;48.034;11.186;2023-08-06T09:29:12;9.68;;;9.30;;
32228;SDS011;18717;48.034;11.186;2023-08-06T09:31:41;10.00;;;9.60;;
32228;SDS011;18717;48.034;11.186;2023-08-06T09:34:14;9.30;;;8.90;;
32228;SDS011;18717;48.034;11.186;2023-08-06T09:36:43;9.75;;;9.27;;
32228;SDS011;18717;48.034;11.186;2023-08-06T09:39:14;10.13;;;9.73;;
32228;SDS011;18717;48.034;11.186;2023-08-06T09:41:44;9.65;;;9.25;;
32228;SDS011;18717;48.034;11.186;2023-08-06T09:44:18;9.80;;;9.00;;
32228;SDS011;18717;48.034;11.186;2023-08-06T09:46:49;10.05;;;9.65;;
32228;SDS011;18717;48.034;11.186;2023-08-06T09:49:18;10.00;;;9.40;;
32228;SDS011;18717;48.034;11.186;2023-08-06T09:51:49;9.80;;;9.40;;
32228;SDS011;18717;48.034;11.186;2023-08-06T09:54:20;9.02;;;8.73;;
32228;SDS011;18717;48.034;11.186;2023-08-06T09:56:54;9.50;;;9.10;;
32228;SDS011;18717;48.034;11.186;2023-08-06T09:59:22;10.10;;;9.70;;
32228;SDS011;18717;48.034;11.186;2023-08-06T10:01:50;9.80;;;9.27;;
32228;SDS011;18717;48.034;11.186;2023-08-06T10:04:19;9.98;;;9.48;;
32228;SDS011;18717;48.034;11.186;2023-08-06T10:06:52;10.50;;;10.10;;
32228;SDS011;18717;48.034;11.186;2023-08-06T10:09:21;9.50;;;9.10;;
32228;SDS011;18717;48.034;11.186;2023-08-06T10:11:49;10.32;;;9.77;;
32228;SDS011;18717;48.034;11.186;2023-08-06T10:14:22;9.40;;;9.10;;
32228;SDS011;18717;48.034;11.186;2023-08-06T10:16:52;10.25;;;9.73;;
32228;SDS011;18717;48.034;11.186;2023-08-06T10:19:20;10.10;;;9.40;;
32228;SDS011;18717;48.034;11.186;2023-08-06T10:24:45;9.50;;;9.20;;
32228;SDS011;18717;48.034;11.186;2023-08-06T10:27:13;9.85;;;9.40;;
32228;SDS011;18717;48.034;11.186;2023-08-06T10:29:45;9.40;;;9.10;;
32228;SDS011;18717;48.034;11.186;2023-08-06T10:32:13;9.90;;;9.50;;
32228;SDS011;18717;48.034;11.186;2023-08-06T10:34:53;9.60;;;9.20;;
32228;SDS011;18717;48.034;11.186;2023-08-06T10:37:34;9.30;;;9.00;;
32228;SDS011;18717;48.034;11.186;2023-08-06T10:40:02;9.80;;;9.40;;
32228;SDS011;18717;48.034;11.186;2023-08-06T10:42:32;9.65;;;9.30;;
32228;SDS011;18717;48.034;11.186;2023-08-06T10:45:13;9.68;;;9.30;;
32228;SDS011;18717;48.034;11.186;2023-08-06T10:47:41;9.43;;;9.13;;
32228;SDS011;18717;48.034;11.186;2023-08-06T10:50:11;9.48;;;9.07;;
32228;SDS011;18717;48.034;11.186;2023-08-06T10:52:40;9.98;;;9.57;;
32228;SDS011;18717;48.034;11.186;2023-08-06T10:55:07;9.48;;;9.07;;
32228;SDS011;18717;48.034;11.186;2023-08-06T10:57:36;9.63;;;9.15;;
32228;SDS011;18717;48.034;11.186;2023-08-06T11:00:04;9.80;;;9.30;;
32228;SDS011;18717;48.034;11.186;2023-08-06T11:02:43;10.68;;;10.27;;
32228;SDS011;18717;48.034;11.186;2023-08-06T11:05:11;10.43;;;9.82;;
32228;SDS011;18717;48.034;11.186;2023-08-06T11:07:39;9.73;;;9.35;;
32228;SDS011;18717;48.034;11.186;2023-08-06T11:10:07;9.85;;;9.45;;
32228;SDS011;18717;48.034;11.186;2023-08-06T11:12:36;9.60;;;9.30;;
32228;SDS011;18717;48.034;11.186;2023-08-06T11:15:04;9.43;;;9.13;;
32228;SDS011;18717;48.034;11.186;2023-08-06T11:17:33;9.82;;;9.27;;
32228;SDS011;18717;48.034;11.186;2023-08-06T11:20:03;10.18;;;9.50;;
32228;SDS011;18717;48.034;11.186;2023-08-06T11:22:32;9.98;;;9.57;;
32228;SDS011;18717;48.034;11.186;2023-08-06T11:24:59;9.85;;;9.40;;
32228;SDS011;18717;48.034;11.186;2023-08-06T11:27:28;9.95;;;9.55;;
32228;SDS011;18717;48.034;11.186;2023-08-06T11:29:56;9.85;;;9.45;;
32228;SDS011;18717;48.034;11.186;2023-08-06T11:32:23;9.70;;;9.27;;
32228;SDS011;18717;48.034;11.186;2023-08-06T11:34:52;9.77;;;9.38;;
32228;SDS011;18717;48.034;11.186;2023-08-06T11:37:23;9.10;;;8.80;;
32228;SDS011;18717;48.034;11.186;2023-08-06T11:39:51;10.45;;;10.05;;
32228;SDS011;18717;48.034;11.186;2023-08-06T11:42:19;9.55;;;9.20;;
32228;SDS011;18717;48.034;11.186;2023-08-06T11:44:47;9.30;;;8.90;;
32228;SDS011;18717;48.034;11.186;2023-08-06T11:47:16;9.70;;;9.30;;
32228;SDS011;18717;48.034;11.186;2023-08-06T11:49:46;10.13;;;9.73;;
32228;SDS011;18717;48.034;11.186;2023-08-06T11:52:15;9.48;;;9.18;;
32228;SDS011;18717;48.034;11.186;2023-08-06T11:57:32;9.82;;;9.45;;
32228;SDS011;18717;48.034;11.186;2023-08-06T12:00:02;9.38;;;8.98;;
32228;SDS011;18717;48.034;11.186;2023-08-06T12:02:31;9.73;;;9.27;;
32228;SDS011;18717;48.034;11.186;2023-08-06T12:05:04;9.25;;;8.95;;
32228;SDS011;18717;48.034;11.186;2023-08-06T12:07:32;9.75;;;9.35;;
32228;SDS011;18717;48.034;11.186;2023-08-06T12:10:01;9.50;;;9.10;;
32228;SDS011;18717;48.034;11.186;2023-08-06T12:12:29;10.65;;;10.15;;
32228;SDS011;18717;48.034;11.186;2023-08-06T12:14:57;9.70;;;9.05;;
32228;SDS011;18717;48.034;11.186;2023-08-06T12:17:25;9.63;;;9.23;;
32228;SDS011;18717;48.034;11.186;2023-08-06T12:19:53;9.07;;;8.77;;
32228;SDS011;18717;48.034;11.186;2023-08-06T12:22:21;9.82;;;9.43;;
32228;SDS011;18717;48.034;11.186;2023-08-06T12:24:50;9.30;;;9.00;;
32228;SDS011;18717;48.034;11.186;2023-08-06T12:27:19;9.35;;;9.05;;
32228;SDS011;18717;48.034;11.186;2023-08-06T12:29:47;9.48;;;9.07;;
32228;SDS011;18717;48.034;11.186;2023-08-06T12:32:15;9.95;;;9.55;;
32228;SDS011;18717;48.034;11.186;2023-08-06T12:34:43;9.43;;;9.02;;
32228;SDS011;18717;48.034;11.186;2023-08-06T12:37:13;9.38;;;9.07;;
32228;SDS011;18717;48.034;11.186;2023-08-06T12:39:41;9.25;;;8.95;;
32228;SDS011;18717;48.034;11.186;2023-08-06T12:42:09;9.90;;;9.50;;
32228;SDS011;18717;48.034;11.186;2023-08-06T12:44:38;9.48;;;9.07;;
32228;SDS011;18717;48.034;11.186;2023-08-06T12:47:06;9.85;;;9.25;;
32228;SDS011;18717;48.034;11.186;2023-08-06T12:49:34;9.32;;;9.02;;
32228;SDS011;18717;48.034;11.186;2023-08-06T12:52:02;9.68;;;9.00;;
32228;SDS011;18717;48.034;11.186;2023-08-06T12:54:33;9.65;;;9.30;;
32228;SDS011;18717;48.034;11.186;2023-08-06T12:57:03;9.77;;;9.38;;
32228;SDS011;18717;48.034;11.186;2023-08-06T12:59:33;9.95;;;9.55;;
32228;SDS011;18717;48.034;11.186;2023-08-06T13:02:04;9.10;;;8.77;;
32228;SDS011;18717;48.034;11.186;2023-08-06T13:04:32;9.40;;;9.00;;
32228;SDS011;18717;48.034;11.186;2023-08-06T13:07:00;9.13;;;8.82;;
32228;SDS011;18717;48.034;11.186;2023-08-06T13:09:28;9.35;;;8.85;;
32228;SDS011;18717;48.034;11.186;2023-08-06T13:11:58;9.32;;;8.93;;
32228;SDS011;18717;48.034;11.186;2023-08-06T13:14:31;8.80;;;8.50;;
32228;SDS011;18717;48.034;11.186;2023-08-06T13:16:59;9.50;;;9.18;;
32228;SDS011;18717;48.034;11.186;2023-08-06T13:19:28;9.10;;;8.80;;
32228;SDS011;18717;48.034;11.186;2023-08-06T13:21:59;9.52;;;9.13;;
32228;SDS011;18717;48.034;11.186;2023-08-06T13:24:29;9.45;;;9.10;;
32228;SDS011;18717;48.034;11.186;2023-08-06T13:26:57;9.35;;;9.00;;
32228;SDS011;18717;48.034;11.186;2023-08-06T13:29:25;8.82;;;8.52;;
32228;SDS011;18717;48.034;11.186;2023-08-06T13:31:53;9.20;;;8.80;;
32228;SDS011;18717;48.034;11.186;2023-08-06T13:34:21;9.10;;;8.80;;
32228;SDS011;18717;48.034;11.186;2023-08-06T13:36:50;9.40;;;9.00;;
32228;SDS011;18717;48.034;11.186;2023-08-06T13:39:18;8.90;;;8.50;;
32228;SDS011;18717;48.034;11.186;2023-08-06T13:41:46;9.18;;;8.88;;
32228;SDS011;18717;48.034;11.186;2023-08-06T13:44:14;9.18;;;8.88;;
32228;SDS011;18717;48.034;11.186;2023-08-06T13:46:42;9.15;;;8.85;;
32228;SDS011;18717;48.034;11.186;2023-08-06T13:49:10;9.77;;;9.43;;
32228;SDS011;18717;48.034;11.186;2023-08-06T13:51:37;9.00;;;8.70;;
32228;SDS011;18717;48.034;11.186;2023-08-06T13:54:06;9.02;;;8.52;;
32228;SDS011;18717;48.034;11.186;2023-08-06T13:56:34;9.15;;;8.85;;
32228;SDS011;18717;48.034;11.186;2023-08-06T13:59:04;9.10;;;8.80;;
32228;SDS011;18717;48.034;11.186;2023-08-06T14:01:32;9.10;;;8.70;;
32228;SDS011;18717;48.034;11.186;2023-08-06T14:04:16;8.80;;;8.50;;
32228;SDS011;18717;48.034;11.186;2023-08-06T14:06:43;9.35;;;8.73;;
32228;SDS011;18717;48.034;11.186;2023-08-06T14:09:12;9.60;;;9.10;;
32228;SDS011;18717;48.034;11.186;2023-08-06T14:11:44;8.95;;;8.55;;
32228;SDS011;18717;48.034;11.186;2023-08-06T14:14:12;8.60;;;8.30;;
32228;SDS011;18717;48.034;11.186;2023-08-06T14:16:40;8.65;;;8.35;;
32228;SDS011;18717;48.034;11.186;2023-08-06T14:19:07;9.20;;;8.70;;
32228;SDS011;18717;48.034;11.186;2023-08-06T14:21:35;9.32;;;8.88;;
32228;SDS011;18717;48.034;11.186;2023-08-06T14:24:03;8.82;;;8.40;;
32228;SDS011;18717;48.034;11.186;2023-08-06T14:26:33;9.07;;;8.68;;
32228;SDS011;18717;48.034;11.186;2023-08-06T14:29:00;9.90;;;9.40;;
32228;SDS011;18717;48.034;11.186;2023-08-06T14:31:28;9.90;;;9.30;;
32228;SDS011;18717;48.034;11.186;2023-08-06T14:33:56;9.02;;;8.65;;